Wetterdaten: aktuell Freitag, 22.09.2023 21:00
Datum Zeit Temp. A. Feuchte A. Luftdruck Regen Wind Richtung Richtung Sonnenschein ET UV Solar Taupunkt Windchill Windben
22.09.2023 21:00 15,7 C 78 % 1006,6 hPa 0,0 l/m 0,5 km/h (0 Bft) S-SW 192 0 min 0,026 mm 0,0 UV-I 0 W/m 11,9 C 15,7 C 4,8 km/h (1 Bft)
22.09.2023 20:00 16,5 C 75 % 1006,4 hPa 0,0 l/m 3,0 km/h (1 Bft) W-SW 239 0 min 0,025 mm 0,0 UV-I 0 W/m 12,1 C 16,5 C 6,4 km/h (2 Bft)
22.09.2023 19:00 17,1 C 76 % 1006,1 hPa 0,0 l/m 3,9 km/h (1 Bft) S 172 0 min 0,025 mm 0,0 UV-I 5 W/m 12,8 C 17,1 C 8,0 km/h (2 Bft)
22.09.2023 18:00 17,5 C 75 % 1005,6 hPa 0,0 l/m 1,3 km/h (1 Bft) S-SO 156 0 min 0,077 mm 0,0 UV-I 35 W/m 13,0 C 17,5 C 6,4 km/h (2 Bft)
22.09.2023 17:00 17,7 C 75 % 1005,1 hPa 0,0 l/m 1,3 km/h (1 Bft) S 175 0 min 0,077 mm 0,0 UV-I 44 W/m 13,2 C 17,7 C 4,8 km/h (1 Bft)
22.09.2023 16:00 17,7 C 74 % 1005,4 hPa 0,0 l/m 5,0 km/h (1 Bft) S 169 0 min 0,101 mm 0,9 UV-I 181 W/m 13,0 C 17,7 C 11,3 km/h (2 Bft)
22.09.2023 15:00 17,7 C 73 % 1005,3 hPa 0,0 l/m 4,1 km/h (1 Bft) W 267 0 min 0,102 mm 1,3 UV-I 234 W/m 12,8 C 17,7 C 9,7 km/h (2 Bft)
22.09.2023 14:00 16,8 C 76 % 1005,4 hPa 0,0 l/m 2,1 km/h (1 Bft) S-SO 165 0 min 0,076 mm 1,0 UV-I 151 W/m 12,5 C 16,8 C 6,4 km/h (2 Bft)
22.09.2023 13:00 16,4 C 78 % 1005,4 hPa 0,0 l/m 3,4 km/h (1 Bft) W 274 0 min 0,076 mm 0,7 UV-I 90 W/m 12,6 C 16,4 C 9,7 km/h (2 Bft)
22.09.2023 12:00 16,2 C 80 % 1004,9 hPa 0,0 l/m 2,9 km/h (1 Bft) W-SW 252 0 min 0,076 mm 0,8 UV-I 125 W/m 12,7 C 16,2 C 8,0 km/h (2 Bft)
22.09.2023 11:00 15,6 C 83 % 1004,8 hPa 0,0 l/m 6,2 km/h (2 Bft) W-SW 248 0 min 0,051 mm 0,5 UV-I 65 W/m 12,7 C 15,6 C 17,7 km/h (3 Bft)
22.09.2023 10:00 15,6 C 88 % 1003,9 hPa 0,0 l/m 3,1 km/h (1 Bft) S-SW 213 0 min 0,026 mm 0,0 UV-I 47 W/m 13,6 C 15,6 C 9,7 km/h (2 Bft)
22.09.2023 09:00 15,4 C 89 % 1003,1 hPa 0,0 l/m 2,0 km/h (1 Bft) W-NW 290 0 min 0,001 mm 0,0 UV-I 49 W/m 13,6 C 15,4 C 6,4 km/h (2 Bft)
22.09.2023 08:00 15,3 C 90 % 1002,5 hPa 0,4 l/m 0,7 km/h (0 Bft) W 264 0 min 0,000 mm 0,0 UV-I 19 W/m 13,7 C 15,3 C 6,4 km/h (2 Bft)
22.09.2023 07:00 15,4 C 89 % 1002,0 hPa 0,2 l/m 0,0 km/h (0 Bft) W 275 0 min 0,000 mm 0,0 UV-I 0 W/m 13,6 C 15,4 C 0,0 km/h (0 Bft)
22.09.2023 06:00 15,9 C 89 % 1001,5 hPa 0,0 l/m 0,5 km/h (0 Bft) SW 234 0 min 0,000 mm 0,0 UV-I 0 W/m 14,1 C 15,9 C 4,8 km/h (1 Bft)
22.09.2023 05:00 16,3 C 89 % 1001,1 hPa 0,6 l/m 1,6 km/h (1 Bft) S-SO 157 0 min 0,025 mm 0,0 UV-I 0 W/m 14,5 C 16,3 C 4,8 km/h (1 Bft)
22.09.2023 04:00 16,3 C 87 % 1001,3 hPa 1,6 l/m 0,0 km/h (0 Bft) S-SO 157 0 min 0,025 mm 0,0 UV-I 0 W/m 14,1 C 16,3 C 3,2 km/h (1 Bft)
22.09.2023 03:00 17,4 C 81 % 1000,4 hPa 0,0 l/m 4,8 km/h (1 Bft) S-SW 202 0 min 0,025 mm 0,0 UV-I 0 W/m 14,1 C 17,4 C 11,3 km/h (2 Bft)
22.09.2023 02:00 18,6 C 74 % 1000,1 hPa 0,0 l/m 3,2 km/h (1 Bft) N 360 0 min 0,051 mm 0,0 UV-I 0 W/m 13,9 C 18,6 C 9,7 km/h (2 Bft)
22.09.2023 01:00 20,3 C 76 % 998,9 hPa 0,0 l/m 6,4 km/h (2 Bft) W 270 0 min 0,025 mm 0,0 UV-I 0 W/m 15,9 C 20,3 C 16,1 km/h (3 Bft)
22.09.2023 00:00 18,6 C 80 % 997,8 hPa 0,0 l/m 0,0 km/h (0 Bft) S-SO 157 0 min 0,025 mm 0,0 UV-I 0 W/m 15,1 C 18,6 C 1,6 km/h (1 Bft)
_ Min-Zeit 07:15 01:20 00:00 - 00:00 - - - - - - 21:00 11:25 00:05
Minimum _ 15,3 C 69 % 997,8 hPa - 0,0 km/h (0 Bft) - - - - - - 11,9 C 15,2 C 0,0 km/h (0 Bft)
_ Max-Zeit 01:10 07:45 20:20 03:40 01:05 - - 00:00 15:00 13:25 14:55 01:05 01:10 01:30
Maximum _ 20,9 C 90 % 1006,6 hPa 0,4 l/m 8,0 km/h
W-SW (2 Bft)
- - 0 min 0,102 mm 1,4 UV-I 237 W/m 16,0 C 20,9 C 20,9 km/h
SW (4 Bft)
Durchschnitt _ 16,8 C 81 % 1003,4 hPa #2,8 l/m 2,6 km/h (1 Bft) S-SO - #0 min. #0,813 mm 0,9 UV-I 87 W/m 13,4 C 16,8 C 7,6 km/h (2 Bft)